createdAt,value
2023-04-23T03:59:54.579Z,0.00
2023-04-23T04:00:54.514Z,0.00
2023-04-23T04:01:54.524Z,0.00
2023-04-23T04:02:54.729Z,0.00
2023-04-23T04:03:54.688Z,0.00
2023-04-23T04:04:54.656Z,0.00
2023-04-23T04:05:54.651Z,0.00
2023-04-23T04:06:54.472Z,0.00
2023-04-23T04:07:54.479Z,0.00
2023-04-23T04:08:54.470Z,0.00
2023-04-23T04:09:54.482Z,0.00
2023-04-23T04:10:54.482Z,0.00
2023-04-23T04:11:54.462Z,0.00
2023-04-23T04:12:54.443Z,0.00
2023-04-23T04:13:54.446Z,0.00
2023-04-23T04:14:54.430Z,0.00
2023-04-23T04:15:54.462Z,0.00
2023-04-23T04:16:54.466Z,0.00
2023-04-23T04:17:54.446Z,0.00
2023-04-23T04:18:56.449Z,0.00
2023-04-23T04:19:54.436Z,0.00
2023-04-23T04:20:54.418Z,0.00
2023-04-23T04:21:54.403Z,0.00
2023-04-23T04:22:54.400Z,0.00
2023-04-23T04:23:54.398Z,0.00
2023-04-23T04:24:54.417Z,0.00
2023-04-23T04:25:54.413Z,0.00
2023-04-23T04:26:54.414Z,0.00
2023-04-23T04:27:54.409Z,0.00
2023-04-23T04:28:54.403Z,0.00
2023-04-23T04:29:54.428Z,0.00
2023-04-23T04:30:54.399Z,5.63
2023-04-23T04:31:54.394Z,5.63
2023-04-23T04:32:54.365Z,5.63
2023-04-23T04:33:54.350Z,5.63
2023-04-23T04:34:54.362Z,5.63
2023-04-23T04:35:54.362Z,5.63
2023-04-23T04:36:54.343Z,5.63
2023-04-23T04:37:54.352Z,5.63
2023-04-23T04:38:54.357Z,5.63
2023-04-23T04:39:54.385Z,5.63
2023-04-23T04:40:54.382Z,5.63
2023-04-23T04:41:54.321Z,5.63
2023-04-23T04:42:54.350Z,5.63
2023-04-23T04:43:54.318Z,5.63
2023-04-23T04:44:54.319Z,5.63
2023-04-23T04:45:54.316Z,5.63
2023-04-23T04:46:54.322Z,5.63
2023-04-23T04:47:54.369Z,5.63
2023-04-23T04:48:54.302Z,5.63
2023-04-23T04:49:54.286Z,11.25
2023-04-23T04:50:54.296Z,11.25
2023-04-23T04:51:54.309Z,11.25
2023-04-23T04:52:54.323Z,11.25
2023-04-23T04:53:54.334Z,11.25
2023-04-23T04:54:54.305Z,11.25
2023-04-23T04:55:54.288Z,11.25
2023-04-23T04:56:54.287Z,11.25
2023-04-23T04:57:54.274Z,11.25
2023-04-23T04:58:54.304Z,11.25
2023-04-23T04:59:54.305Z,11.25
2023-04-23T05:00:54.306Z,11.25
2023-04-23T05:01:54.301Z,11.25
2023-04-23T05:02:54.341Z,11.25
2023-04-23T05:03:54.452Z,11.25
2023-04-23T05:04:54.244Z,11.25
2023-04-23T05:05:54.247Z,11.25
2023-04-23T05:06:54.232Z,11.25
2023-04-23T05:07:54.301Z,11.25
2023-04-23T05:08:54.264Z,11.25
2023-04-23T05:09:54.230Z,11.25
2023-04-23T05:10:54.251Z,11.25
2023-04-23T05:11:54.230Z,11.25
2023-04-23T05:12:54.237Z,11.25
2023-04-23T05:13:54.249Z,11.25
2023-04-23T05:14:54.427Z,11.25
2023-04-23T05:15:54.212Z,11.25
2023-04-23T05:16:54.239Z,11.25
2023-04-23T05:17:54.226Z,11.25
2023-04-23T05:18:54.200Z,11.25
2023-04-23T05:19:54.219Z,11.25
2023-04-23T05:20:54.186Z,11.25
2023-04-23T05:21:54.185Z,16.88
2023-04-23T05:22:54.185Z,16.88
2023-04-23T05:23:54.199Z,16.88
2023-04-23T05:24:54.199Z,16.88
2023-04-23T05:25:54.463Z,16.88
2023-04-23T05:26:54.173Z,22.50
2023-04-23T05:27:54.193Z,22.50
2023-04-23T05:28:54.168Z,22.50
2023-04-23T05:29:54.199Z,22.50
2023-04-23T05:30:54.156Z,22.50
2023-04-23T05:31:54.165Z,22.50
2023-04-23T05:32:54.188Z,28.13
2023-04-23T05:33:54.158Z,28.13
2023-04-23T05:34:54.141Z,28.13
2023-04-23T05:35:54.146Z,28.13
2023-04-23T05:36:54.138Z,28.13
2023-04-23T05:37:54.155Z,28.13
2023-04-23T05:38:54.126Z,28.13
2023-04-23T05:39:54.165Z,28.13
2023-04-23T05:40:54.110Z,28.13
2023-04-23T05:41:54.121Z,33.75
2023-04-23T05:42:54.115Z,33.75
2023-04-23T05:43:54.127Z,33.75
2023-04-23T05:44:54.095Z,39.38
2023-04-23T05:45:54.102Z,39.38
2023-04-23T05:46:54.093Z,39.38
2023-04-23T05:47:54.229Z,39.38
2023-04-23T05:48:54.092Z,39.38
2023-04-23T05:49:54.078Z,39.38
2023-04-23T05:50:54.082Z,45.00
2023-04-23T05:51:54.135Z,45.00
2023-04-23T05:52:54.070Z,45.00
2023-04-23T05:53:54.091Z,50.63
2023-04-23T05:54:54.056Z,61.88
2023-04-23T05:55:54.093Z,61.88
2023-04-23T05:56:54.703Z,61.88
2023-04-23T05:57:54.060Z,61.88
2023-04-23T05:58:54.071Z,67.50
2023-04-23T05:59:54.039Z,73.13
2023-04-23T06:00:54.051Z,78.75
2023-04-23T06:01:54.034Z,84.38
2023-04-23T06:02:54.140Z,84.38
2023-04-23T06:03:54.304Z,78.75
2023-04-23T06:04:54.364Z,90.00
2023-04-23T06:05:54.032Z,84.38
2023-04-23T06:06:54.021Z,90.00
2023-04-23T06:07:54.063Z,90.00
2023-04-23T06:08:54.049Z,84.38
2023-04-23T06:09:54.023Z,90.00
2023-04-23T06:10:54.011Z,73.13
2023-04-23T06:11:54.009Z,90.00
2023-04-23T06:12:54.048Z,73.13
2023-04-23T06:13:54.026Z,84.38
2023-04-23T06:14:54.013Z,90.00
2023-04-23T06:15:54.029Z,106.88
2023-04-23T06:16:53.986Z,118.13
2023-04-23T06:17:54.044Z,112.50
2023-04-23T06:18:53.990Z,118.13
2023-04-23T06:19:53.998Z,106.88
2023-04-23T06:20:54.002Z,112.50
2023-04-23T06:21:53.970Z,118.13
2023-04-23T06:22:53.987Z,118.13
2023-04-23T06:23:53.985Z,123.75
2023-04-23T06:24:53.979Z,123.75
2023-04-23T06:25:53.974Z,123.75
2023-04-23T06:26:53.954Z,123.75
2023-04-23T06:27:53.958Z,123.75
2023-04-23T06:28:53.967Z,123.75
2023-04-23T06:29:54.062Z,118.13
2023-04-23T06:30:53.958Z,78.75
2023-04-23T06:31:53.988Z,78.75
2023-04-23T06:32:53.988Z,78.75
2023-04-23T06:33:53.949Z,78.75
2023-04-23T06:35:01.711Z,78.75
2023-04-23T06:35:53.964Z,84.38
2023-04-23T06:36:53.963Z,112.50
2023-04-23T06:37:53.937Z,73.13
2023-04-23T06:38:53.923Z,84.38
2023-04-23T06:39:53.950Z,78.75
2023-04-23T06:40:53.947Z,84.38
2023-04-23T06:41:53.921Z,106.88
2023-04-23T06:42:53.931Z,78.75
2023-04-23T06:43:53.930Z,73.13
2023-04-23T06:44:53.920Z,73.13
2023-04-23T06:45:53.957Z,101.25
2023-04-23T06:46:53.955Z,118.13
2023-04-23T06:47:53.926Z,84.38
2023-04-23T06:48:53.915Z,84.38
2023-04-23T06:49:53.932Z,78.75
2023-04-23T06:50:53.992Z,78.75
2023-04-23T06:51:55.243Z,78.75
2023-04-23T06:52:53.905Z,84.38
2023-04-23T06:53:53.918Z,106.88
2023-04-23T06:54:53.916Z,129.38
2023-04-23T06:55:53.972Z,118.13
2023-04-23T06:56:53.907Z,90.00
2023-04-23T06:57:53.901Z,78.75
2023-04-23T06:58:53.892Z,73.13
2023-04-23T06:59:53.916Z,73.13
2023-04-23T07:00:53.926Z,73.13
2023-04-23T07:01:53.880Z,73.13
2023-04-23T07:02:53.926Z,73.13
2023-04-23T07:03:53.936Z,84.38
2023-04-23T07:04:53.891Z,73.13
2023-04-23T07:05:53.896Z,90.00
2023-04-23T07:06:53.884Z,95.63
2023-04-23T07:07:53.910Z,146.25
2023-04-23T07:08:53.982Z,140.63
2023-04-23T07:09:53.888Z,140.63
2023-04-23T07:10:53.897Z,129.38
2023-04-23T07:11:53.907Z,135.00
2023-04-23T07:12:53.888Z,95.63
2023-04-23T07:13:53.873Z,135.00
2023-04-23T07:14:53.869Z,123.75
2023-04-23T07:15:53.883Z,67.50
2023-04-23T07:16:53.967Z,123.75
2023-04-23T07:17:53.919Z,129.38
2023-04-23T07:18:53.887Z,129.38
2023-04-23T07:19:53.895Z,129.38
2023-04-23T07:20:55.905Z,129.38
2023-04-23T07:21:53.896Z,123.75
2023-04-23T07:22:53.890Z,129.38
2023-04-23T07:23:53.864Z,129.38
2023-04-23T07:24:53.878Z,129.38
2023-04-23T07:25:53.879Z,123.75
2023-04-23T07:26:53.855Z,129.38
2023-04-23T07:27:53.921Z,129.38
2023-04-23T07:28:53.857Z,129.38
2023-04-23T07:29:53.884Z,129.38
2023-04-23T07:30:53.878Z,129.38
2023-04-23T07:31:53.969Z,129.38
2023-04-23T07:32:53.912Z,129.38
2023-04-23T07:33:53.849Z,129.38
2023-04-23T07:34:53.852Z,129.38
2023-04-23T07:35:53.854Z,129.38
2023-04-23T07:36:53.878Z,129.38
2023-04-23T07:37:53.895Z,129.38
2023-04-23T07:38:53.853Z,129.38
2023-04-23T07:39:53.906Z,129.38
2023-04-23T07:40:53.846Z,129.38
2023-04-23T07:41:53.850Z,129.38
2023-04-23T07:42:53.840Z,129.38
2023-04-23T07:43:53.854Z,129.38
2023-04-23T07:44:53.930Z,129.38
2023-04-23T07:45:53.892Z,129.38
2023-04-23T07:46:53.832Z,129.38
2023-04-23T07:47:53.887Z,129.38
2023-04-23T07:48:53.889Z,129.38
2023-04-23T07:49:53.842Z,129.38
2023-04-23T07:50:53.872Z,129.38
2023-04-23T07:51:53.849Z,129.38
2023-04-23T07:52:53.833Z,129.38
2023-04-23T07:53:53.858Z,129.38
2023-04-23T07:54:53.847Z,129.38
2023-04-23T07:55:53.833Z,129.38
2023-04-23T07:56:53.855Z,129.38
2023-04-23T07:57:53.842Z,129.38
2023-04-23T07:58:53.860Z,129.38
2023-04-23T07:59:53.855Z,129.38
2023-04-23T08:00:53.827Z,129.38
2023-04-23T08:01:53.848Z,129.38
2023-04-23T08:02:53.993Z,123.75
2023-04-23T08:03:55.172Z,123.75
2023-04-23T08:04:54.027Z,123.75
2023-04-23T08:05:53.838Z,123.75
2023-04-23T08:06:53.851Z,123.75
2023-04-23T08:07:53.854Z,123.75
2023-04-23T08:08:53.830Z,123.75
2023-04-23T08:09:53.859Z,123.75
2023-04-23T08:10:53.827Z,123.75
2023-04-23T08:11:53.852Z,123.75
2023-04-23T08:12:53.853Z,123.75
2023-04-23T08:13:53.842Z,123.75
2023-04-23T08:14:53.823Z,123.75
2023-04-23T08:15:53.861Z,123.75
2023-04-23T08:16:53.810Z,123.75
2023-04-23T08:17:54.122Z,123.75
2023-04-23T08:19:04.304Z,123.75
2023-04-23T08:19:53.838Z,123.75
2023-04-23T08:20:53.836Z,123.75
2023-04-23T08:21:53.825Z,123.75
2023-04-23T08:22:53.864Z,123.75
2023-04-23T08:23:53.853Z,123.75
2023-04-23T08:24:53.821Z,123.75
2023-04-23T08:25:53.827Z,123.75
2023-04-23T08:26:53.839Z,123.75
2023-04-23T08:27:53.850Z,123.75
2023-04-23T08:28:53.823Z,123.75
2023-04-23T08:29:53.833Z,123.75
2023-04-23T08:30:53.831Z,123.75
2023-04-23T08:31:53.904Z,123.75
2023-04-23T08:32:54.038Z,123.75
2023-04-23T08:33:53.837Z,123.75
2023-04-23T08:34:53.840Z,123.75
2023-04-23T08:35:53.833Z,123.75
2023-04-23T08:36:53.844Z,123.75
2023-04-23T08:37:53.829Z,123.75
2023-04-23T08:38:53.833Z,129.38
2023-04-23T08:39:53.807Z,135.00
2023-04-23T08:40:53.822Z,140.63
2023-04-23T08:41:53.830Z,146.25
2023-04-23T08:42:53.822Z,157.50
2023-04-23T08:43:53.809Z,151.88
2023-04-23T08:44:53.838Z,140.63
2023-04-23T08:45:53.823Z,151.88
2023-04-23T08:46:53.872Z,140.63
2023-04-23T08:47:53.869Z,135.00
2023-04-23T08:48:53.842Z,135.00
2023-04-23T08:49:53.840Z,135.00
2023-04-23T08:50:53.825Z,140.63
2023-04-23T08:51:53.825Z,135.00
2023-04-23T08:52:53.848Z,135.00
2023-04-23T08:53:53.864Z,129.38
2023-04-23T08:54:53.849Z,123.75
2023-04-23T08:55:53.887Z,123.75
2023-04-23T08:56:53.818Z,129.38
2023-04-23T08:57:53.863Z,135.00
2023-04-23T08:58:56.446Z,140.63
2023-04-23T08:59:53.835Z,146.25
2023-04-23T09:00:53.905Z,151.88
2023-04-23T09:01:53.832Z,151.88
2023-04-23T09:02:53.975Z,146.25
2023-04-23T09:03:54.095Z,140.63
2023-04-23T09:04:56.053Z,140.63
2023-04-23T09:05:53.821Z,135.00
2023-04-23T09:06:53.849Z,129.38
2023-04-23T09:07:53.841Z,123.75
2023-04-23T09:08:53.820Z,123.75
2023-04-23T09:09:53.863Z,129.38
2023-04-23T09:10:53.812Z,129.38
2023-04-23T09:11:54.918Z,129.38
2023-04-23T09:12:53.816Z,129.38
2023-04-23T09:13:53.833Z,135.00
2023-04-23T09:14:53.832Z,135.00
2023-04-23T09:15:53.822Z,135.00
2023-04-23T09:16:54.026Z,140.63
2023-04-23T09:17:53.858Z,135.00
2023-04-23T09:18:53.818Z,135.00
2023-04-23T09:19:53.875Z,129.38
2023-04-23T09:20:53.834Z,123.75
2023-04-23T09:21:53.848Z,118.13
2023-04-23T09:22:53.867Z,112.50
2023-04-23T09:23:53.814Z,112.50
2023-04-23T09:24:53.810Z,118.13
2023-04-23T09:25:53.833Z,106.88
2023-04-23T09:26:53.824Z,106.88
2023-04-23T09:27:53.824Z,112.50
2023-04-23T09:28:53.855Z,112.50
2023-04-23T09:29:53.854Z,106.88
2023-04-23T09:30:53.838Z,106.88
2023-04-23T09:31:53.875Z,123.75
2023-04-23T09:32:53.913Z,135.00
2023-04-23T09:33:53.866Z,129.38
2023-04-23T09:34:53.832Z,129.38
2023-04-23T09:35:53.869Z,129.38
2023-04-23T09:36:53.823Z,129.38
2023-04-23T09:37:53.895Z,129.38
2023-04-23T09:38:53.838Z,123.75
2023-04-23T09:39:53.816Z,123.75
2023-04-23T09:40:53.822Z,123.75
2023-04-23T09:41:53.868Z,129.38
2023-04-23T09:42:53.855Z,123.75
2023-04-23T09:43:53.828Z,129.38
2023-04-23T09:44:53.839Z,123.75
2023-04-23T09:45:53.869Z,123.75
2023-04-23T09:46:53.811Z,118.13
2023-04-23T09:47:53.906Z,118.13
2023-04-23T09:48:53.817Z,118.13
2023-04-23T09:49:53.819Z,118.13
2023-04-23T09:50:53.836Z,123.75
2023-04-23T09:51:53.842Z,118.13
2023-04-23T09:52:53.838Z,118.13
2023-04-23T09:53:53.834Z,118.13
2023-04-23T09:54:53.829Z,118.13
2023-04-23T09:55:53.846Z,123.75
2023-04-23T09:56:53.964Z,118.13
2023-04-23T09:57:53.827Z,123.75
2023-04-23T09:58:53.841Z,118.13
2023-04-23T10:00:00.530Z,118.13
2023-04-23T10:00:53.857Z,123.75
2023-04-23T10:12:53.541Z,129.38
2023-04-23T10:13:40.714Z,135.00
2023-04-23T10:14:40.723Z,135.00
2023-04-23T10:15:40.774Z,140.63
2023-04-23T10:16:48.732Z,140.63
2023-04-23T10:17:40.734Z,146.25
2023-04-23T10:18:40.706Z,157.50
2023-04-23T10:19:41.470Z,163.13
2023-04-23T10:20:40.722Z,163.13
2023-04-23T10:21:53.393Z,163.13
2023-04-23T10:22:40.739Z,157.50
2023-04-23T10:23:40.706Z,151.88
2023-04-23T10:24:40.794Z,157.50
2023-04-23T10:25:40.727Z,151.88
2023-04-23T10:26:40.745Z,151.88
2023-04-23T10:27:52.172Z,151.88
2023-04-23T10:28:40.739Z,151.88
2023-04-23T10:29:40.895Z,157.50
2023-04-23T10:30:40.777Z,163.13
2023-04-23T10:31:40.783Z,163.13
2023-04-23T10:32:40.735Z,157.50
2023-04-23T10:33:55.376Z,157.50
2023-04-23T10:34:40.737Z,112.50
2023-04-23T10:35:40.738Z,174.38
2023-04-23T10:36:40.752Z,180.00
2023-04-23T10:37:40.755Z,180.00
2023-04-23T10:38:54.553Z,180.00
2023-04-23T10:39:40.759Z,129.38
2023-04-23T10:40:40.737Z,180.00
2023-04-23T10:41:40.860Z,157.50
2023-04-23T10:42:40.735Z,140.63
2023-04-23T10:43:40.754Z,208.13
2023-04-23T10:45:40.787Z,213.75
2023-04-23T10:46:40.759Z,219.38
2023-04-23T10:47:40.815Z,213.75
2023-04-23T10:48:40.756Z,163.13
2023-04-23T10:49:41.058Z,168.75
2023-04-23T10:51:00.338Z,174.38
2023-04-23T10:52:40.777Z,219.38
2023-04-23T10:53:40.772Z,163.13
2023-04-23T10:54:40.789Z,157.50
2023-04-23T10:55:40.797Z,146.25
2023-04-23T10:56:40.782Z,135.00
2023-04-23T10:57:40.798Z,140.63
2023-04-23T10:58:40.800Z,157.50
2023-04-23T10:59:40.967Z,163.13
2023-04-23T11:00:40.811Z,168.75
2023-04-23T11:01:40.839Z,219.38
2023-04-23T11:02:40.883Z,202.50
2023-04-23T11:03:43.960Z,230.63
2023-04-23T11:04:40.854Z,230.63
2023-04-23T11:05:40.798Z,230.63
2023-04-23T11:06:40.796Z,303.75
2023-04-23T11:07:40.809Z,292.50
2023-04-23T11:08:40.835Z,286.88
2023-04-23T11:09:41.202Z,298.13
2023-04-23T11:10:40.821Z,286.88
2023-04-23T11:11:40.819Z,241.88
2023-04-23T11:12:40.835Z,270.00
2023-04-23T11:13:40.844Z,281.25
2023-04-23T11:14:40.831Z,286.88
2023-04-23T11:15:40.831Z,286.88
2023-04-23T11:16:41.009Z,253.13
2023-04-23T11:17:40.888Z,168.75
2023-04-23T11:18:40.846Z,163.13
2023-04-23T11:19:41.093Z,213.75
2023-04-23T11:20:40.838Z,225.00
2023-04-23T11:21:40.833Z,236.25
2023-04-23T11:22:40.841Z,236.25
2023-04-23T11:23:40.854Z,208.13
2023-04-23T11:24:40.858Z,298.13
2023-04-23T11:25:40.845Z,264.38
2023-04-23T11:26:40.846Z,225.00
2023-04-23T11:27:40.889Z,112.50
2023-04-23T11:28:40.854Z,95.63
2023-04-23T11:29:41.216Z,90.00
2023-04-23T11:30:40.862Z,84.38
2023-04-23T11:31:50.605Z,90.00
2023-04-23T11:32:40.970Z,101.25
2023-04-23T11:33:40.895Z,118.13
2023-04-23T11:34:40.869Z,135.00
2023-04-23T11:35:40.887Z,151.88
2023-04-23T11:36:40.881Z,163.13
2023-04-23T11:37:40.892Z,168.75
2023-04-23T11:38:40.902Z,174.38
2023-04-23T11:39:41.220Z,185.63
2023-04-23T11:40:40.883Z,196.88
2023-04-23T11:41:40.885Z,213.75
2023-04-23T11:42:40.929Z,225.00
2023-04-23T11:43:40.913Z,230.63
2023-04-23T11:44:40.966Z,236.25
2023-04-23T11:45:40.928Z,236.25
2023-04-23T11:46:40.897Z,247.50
2023-04-23T11:47:40.953Z,253.13
2023-04-23T11:48:40.926Z,270.00
2023-04-23T11:49:41.130Z,320.63
2023-04-23T11:50:40.906Z,371.25
2023-04-23T11:51:40.911Z,365.63
2023-04-23T11:52:40.926Z,382.50
2023-04-23T11:53:40.923Z,365.63
2023-04-23T11:54:40.912Z,365.63
2023-04-23T11:55:40.933Z,354.38
2023-04-23T11:56:40.917Z,343.13
2023-04-23T11:57:40.927Z,326.25
2023-04-23T11:58:40.937Z,241.88
2023-04-23T11:59:41.179Z,331.88
2023-04-23T12:00:40.942Z,225.00
2023-04-23T12:01:40.953Z,236.25
2023-04-23T12:02:41.078Z,343.13
2023-04-23T12:03:41.032Z,433.13
2023-04-23T12:04:41.478Z,326.25
2023-04-23T12:05:41.046Z,225.00
2023-04-23T12:06:40.976Z,225.00
2023-04-23T12:07:40.984Z,258.75
2023-04-23T12:08:40.950Z,298.13
2023-04-23T12:09:41.225Z,281.25
2023-04-23T12:10:40.953Z,286.88
2023-04-23T12:11:40.971Z,236.25
2023-04-23T12:12:40.966Z,236.25
2023-04-23T12:13:40.969Z,264.38
2023-04-23T12:14:40.984Z,292.50
2023-04-23T12:15:41.052Z,275.63
2023-04-23T12:16:40.960Z,241.88
2023-04-23T12:17:41.003Z,225.00
2023-04-23T12:18:40.976Z,208.13
2023-04-23T12:19:41.176Z,219.38
2023-04-23T12:20:40.995Z,247.50
2023-04-23T12:21:40.973Z,275.63
2023-04-23T12:22:40.973Z,275.63
2023-04-23T12:23:40.986Z,360.00
2023-04-23T12:24:41.046Z,354.38
2023-04-23T12:25:41.000Z,438.75
2023-04-23T12:26:41.019Z,444.38
2023-04-23T12:27:41.027Z,506.25
2023-04-23T12:28:41.015Z,438.75
2023-04-23T12:29:41.231Z,371.25
2023-04-23T12:30:41.037Z,450.00
2023-04-23T12:31:41.062Z,495.00
2023-04-23T12:32:41.114Z,461.25
2023-04-23T12:33:41.054Z,416.25
2023-04-23T12:34:41.299Z,444.38
2023-04-23T12:35:41.014Z,472.50
2023-04-23T12:36:41.044Z,450.00
2023-04-23T12:37:41.023Z,483.75
2023-04-23T12:38:41.034Z,421.88
2023-04-23T12:39:41.501Z,393.75
2023-04-23T12:40:41.051Z,399.38
2023-04-23T12:41:41.036Z,354.38
2023-04-23T12:42:41.050Z,309.38
2023-04-23T12:43:41.042Z,241.88
2023-04-23T12:44:41.048Z,253.13
2023-04-23T12:45:41.095Z,253.13
2023-04-23T12:46:41.070Z,241.88
2023-04-23T12:47:41.091Z,230.63
2023-04-23T12:48:41.057Z,241.88
2023-04-23T12:49:41.321Z,213.75
2023-04-23T12:50:41.143Z,213.75
2023-04-23T12:51:41.067Z,241.88
2023-04-23T12:52:41.092Z,281.25
2023-04-23T12:53:41.111Z,298.13
2023-04-23T12:54:41.112Z,270.00
2023-04-23T12:55:41.145Z,253.13
2023-04-23T12:56:41.075Z,241.88
2023-04-23T12:57:41.101Z,241.88
2023-04-23T12:58:41.109Z,241.88
2023-04-23T12:59:41.623Z,241.88
2023-04-23T13:00:41.141Z,247.50
2023-04-23T13:01:41.130Z,241.88
2023-04-23T13:02:41.314Z,236.25
2023-04-23T13:03:41.243Z,241.88
2023-04-23T13:04:41.106Z,270.00
2023-04-23T13:05:41.110Z,292.50
2023-04-23T13:06:41.118Z,309.38
2023-04-23T13:07:41.132Z,315.00
2023-04-23T13:08:41.129Z,331.88
2023-04-23T13:09:41.341Z,348.75
2023-04-23T13:10:41.141Z,371.25
2023-04-23T13:11:41.113Z,382.50
2023-04-23T13:12:41.150Z,382.50
2023-04-23T13:13:41.120Z,382.50
2023-04-23T13:14:41.149Z,410.63
2023-04-23T13:15:41.126Z,472.50
2023-04-23T13:16:41.164Z,500.63
2023-04-23T13:17:41.190Z,511.88
2023-04-23T13:18:41.171Z,478.13
2023-04-23T13:19:41.526Z,337.50
2023-04-23T13:20:41.177Z,331.88
2023-04-23T13:21:41.192Z,466.88
2023-04-23T13:22:41.171Z,489.38
2023-04-23T13:23:41.178Z,472.50
2023-04-23T13:24:41.186Z,416.25
2023-04-23T13:25:41.194Z,371.25
2023-04-23T13:26:41.164Z,331.88
2023-04-23T13:27:41.196Z,286.88
2023-04-23T13:28:41.169Z,270.00
2023-04-23T13:29:41.438Z,241.88
2023-04-23T13:30:41.181Z,213.75
2023-04-23T13:31:41.271Z,163.13
2023-04-23T13:32:41.182Z,146.25
2023-04-23T13:33:41.167Z,140.63
2023-04-23T13:34:41.198Z,135.00
2023-04-23T13:35:41.207Z,129.38
2023-04-23T13:36:41.254Z,129.38
2023-04-23T13:37:41.213Z,123.75
2023-04-23T13:38:41.202Z,118.13
2023-04-23T13:39:41.959Z,112.50
2023-04-23T13:40:41.212Z,106.88
2023-04-23T13:41:41.221Z,106.88
2023-04-23T13:42:41.216Z,112.50
2023-04-23T13:43:41.211Z,118.13
2023-04-23T13:44:41.233Z,123.75
2023-04-23T13:45:41.254Z,129.38
2023-04-23T13:46:41.333Z,135.00
2023-04-23T13:47:41.281Z,135.00
2023-04-23T13:48:41.210Z,129.38
2023-04-23T13:49:41.633Z,129.38
2023-04-23T13:50:41.215Z,129.38
2023-04-23T13:51:41.219Z,123.75
2023-04-23T13:52:41.224Z,123.75
2023-04-23T13:53:41.217Z,123.75
2023-04-23T13:54:41.273Z,123.75
2023-04-23T13:55:41.235Z,123.75
2023-04-23T13:56:41.233Z,123.75
2023-04-23T13:57:41.261Z,123.75
2023-04-23T13:58:41.271Z,129.38
2023-04-23T13:59:41.537Z,129.38
2023-04-23T14:00:41.236Z,135.00
2023-04-23T14:01:41.383Z,146.25
2023-04-23T14:02:41.334Z,163.13
2023-04-23T14:03:41.229Z,174.38
2023-04-23T14:04:41.344Z,185.63
2023-04-23T14:05:41.246Z,213.75
2023-04-23T14:06:41.256Z,253.13
2023-04-23T14:07:41.256Z,264.38
2023-04-23T14:08:41.263Z,309.38
2023-04-23T14:12:13.811Z,540.00
2023-04-23T14:13:13.803Z,686.25
2023-04-23T14:14:13.825Z,793.13
2023-04-23T14:15:13.790Z,736.88
2023-04-23T14:16:13.806Z,714.38
2023-04-23T14:17:13.788Z,528.75
2023-04-23T14:18:13.787Z,630.00
2023-04-23T14:19:13.830Z,669.38
2023-04-23T14:20:13.802Z,506.25
2023-04-23T14:21:16.320Z,506.25
2023-04-23T14:22:13.833Z,545.63
2023-04-23T14:23:13.826Z,511.88
2023-04-23T14:24:13.836Z,573.75
2023-04-23T14:25:13.812Z,624.38
2023-04-23T14:26:13.821Z,686.25
2023-04-23T14:27:13.840Z,697.50
2023-04-23T14:28:13.815Z,646.88
2023-04-23T14:29:13.827Z,680.63
2023-04-23T14:30:13.830Z,703.13
2023-04-23T14:31:13.861Z,686.25
2023-04-23T14:32:13.830Z,866.25
2023-04-23T14:33:13.817Z,939.38
2023-04-23T14:34:13.835Z,911.25
2023-04-23T14:35:13.844Z,922.50
2023-04-23T14:36:13.830Z,663.75
2023-04-23T14:37:13.834Z,371.25
2023-04-23T14:38:13.827Z,399.38
2023-04-23T14:39:13.827Z,281.25
2023-04-23T14:40:13.875Z,281.25
2023-04-23T14:41:13.836Z,686.25
2023-04-23T14:42:13.939Z,545.63
2023-04-23T14:43:15.861Z,180.00
2023-04-23T14:44:13.873Z,151.88
2023-04-23T14:45:13.856Z,151.88
2023-04-23T14:46:13.862Z,140.63
2023-04-23T14:47:13.859Z,101.25
2023-04-23T14:48:13.841Z,95.63
2023-04-23T14:49:13.855Z,73.13
2023-04-23T14:50:13.890Z,50.63
2023-04-23T14:51:13.856Z,33.75
2023-04-23T14:52:13.878Z,22.50
2023-04-23T14:53:13.855Z,16.88
2023-04-23T14:54:13.867Z,11.25
2023-04-23T14:55:13.867Z,11.25
2023-04-23T14:56:34.873Z,5.63
2023-04-23T14:57:13.855Z,5.63
2023-04-23T14:58:13.858Z,5.63
2023-04-23T14:59:13.882Z,11.25
2023-04-23T15:00:13.933Z,11.25
2023-04-23T15:01:13.936Z,16.88
2023-04-23T15:02:13.997Z,16.88
2023-04-23T15:03:13.944Z,22.50
2023-04-23T15:04:14.022Z,28.13
2023-04-23T15:05:13.970Z,39.38
2023-04-23T15:06:13.895Z,50.63
2023-04-23T15:07:13.871Z,67.50
2023-04-23T15:08:13.872Z,84.38
2023-04-23T15:09:13.860Z,106.88
2023-04-23T15:10:13.875Z,135.00
2023-04-23T15:11:13.882Z,101.25
2023-04-23T15:12:13.870Z,95.63
2023-04-23T15:13:13.869Z,90.00
2023-04-23T15:14:13.866Z,84.38
2023-04-23T15:15:13.867Z,84.38
2023-04-23T15:16:13.941Z,78.75
2023-04-23T15:17:13.946Z,78.75
2023-04-23T15:18:13.883Z,84.38
2023-04-23T15:19:13.905Z,90.00
2023-04-23T15:20:13.876Z,101.25
2023-04-23T15:21:13.885Z,112.50
2023-04-23T15:22:13.874Z,123.75
2023-04-23T15:23:13.913Z,129.38
2023-04-23T15:24:13.883Z,146.25
2023-04-23T15:25:13.902Z,157.50
2023-04-23T15:26:13.978Z,168.75
2023-04-23T15:27:13.878Z,174.38
2023-04-23T15:28:13.885Z,180.00
2023-04-23T15:29:14.112Z,196.88
2023-04-23T15:30:13.874Z,213.75
2023-04-23T15:31:13.992Z,219.38
2023-04-23T15:32:13.888Z,219.38
2023-04-23T15:33:13.926Z,225.00
2023-04-23T15:34:13.877Z,230.63
2023-04-23T15:35:13.888Z,247.50
2023-04-23T15:36:13.918Z,213.75
2023-04-23T15:37:13.876Z,202.50
2023-04-23T15:38:13.869Z,196.88
2023-04-23T15:39:13.881Z,202.50
2023-04-23T15:40:13.873Z,196.88
2023-04-23T15:41:13.895Z,185.63
2023-04-23T15:42:13.877Z,185.63
2023-04-23T15:43:13.897Z,185.63
2023-04-23T15:44:13.870Z,185.63
2023-04-23T15:45:13.897Z,185.63
2023-04-23T15:46:13.982Z,185.63
2023-04-23T15:47:13.909Z,185.63
2023-04-23T15:48:13.881Z,185.63
2023-04-23T15:49:14.502Z,185.63
2023-04-23T15:50:13.885Z,185.63
2023-04-23T15:51:13.892Z,185.63
2023-04-23T15:52:13.899Z,174.38
2023-04-23T15:53:13.878Z,168.75
2023-04-23T15:54:13.885Z,163.13
2023-04-23T15:55:13.866Z,151.88
2023-04-23T15:56:13.867Z,146.25
2023-04-23T15:57:13.884Z,135.00
2023-04-23T15:58:13.880Z,129.38
2023-04-23T15:59:13.864Z,118.13
2023-04-23T16:00:13.867Z,106.88
2023-04-23T16:11:44.834Z,67.50
2023-04-23T16:12:44.790Z,67.50
2023-04-23T16:13:44.763Z,61.88
2023-04-23T16:14:44.768Z,61.88
2023-04-23T16:15:44.779Z,56.25
2023-04-23T16:16:44.855Z,56.25
2023-04-23T16:17:44.785Z,50.63
2023-04-23T16:18:44.750Z,50.63
2023-04-23T16:19:45.018Z,45.00
2023-04-23T16:20:44.780Z,45.00
2023-04-23T16:21:44.763Z,39.38
2023-04-23T16:22:44.756Z,33.75
2023-04-23T16:23:44.756Z,33.75
2023-04-23T16:24:44.764Z,33.75
2023-04-23T16:25:44.743Z,33.75
2023-04-23T16:26:44.775Z,28.13
2023-04-23T16:27:44.780Z,28.13
2023-04-23T16:28:45.789Z,28.13
2023-04-23T16:29:44.771Z,28.13
2023-04-23T16:30:44.777Z,33.75
2023-04-23T16:31:44.773Z,33.75
2023-04-23T16:32:44.799Z,28.13
2023-04-23T16:33:44.742Z,33.75
2023-04-23T16:34:44.834Z,33.75
2023-04-23T16:35:44.743Z,33.75
2023-04-23T16:36:44.745Z,33.75
2023-04-23T16:37:44.736Z,33.75
2023-04-23T16:38:44.722Z,33.75
2023-04-23T16:39:44.728Z,33.75
2023-04-23T16:40:44.732Z,28.13
2023-04-23T16:41:44.825Z,28.13
2023-04-23T16:42:44.743Z,28.13
2023-04-23T16:43:44.954Z,28.13
2023-04-23T16:44:44.837Z,28.13
2023-04-23T16:45:44.721Z,28.13
2023-04-23T16:46:44.735Z,28.13
2023-04-23T16:47:44.717Z,28.13
2023-04-23T16:48:44.802Z,22.50
2023-04-23T16:49:44.750Z,22.50
2023-04-23T16:50:44.714Z,22.50
2023-04-23T16:51:44.713Z,16.88
2023-04-23T16:52:44.710Z,16.88
2023-04-23T16:53:44.715Z,16.88
2023-04-23T16:54:44.957Z,11.25
2023-04-23T16:55:44.739Z,11.25
2023-04-23T16:56:44.702Z,16.88
2023-04-23T16:57:44.712Z,16.88
2023-04-23T16:58:44.697Z,16.88
2023-04-23T16:59:44.737Z,22.50
2023-04-23T17:00:44.710Z,22.50
2023-04-23T17:01:44.719Z,28.13
2023-04-23T17:02:44.808Z,28.13
2023-04-23T17:03:44.891Z,28.13